M I D A S
Marine Information and Data Acquisition System
Tripno 454 of the Zeeleeuw from 2003-03-24 07:33:44 to 2003-03-24 16:04:33
Back to CruiseResearch ActivitiesStationsMapUnderway DataData graphs

EquipmentUnitsComment
TimeDGPSUTC
LatitudeDGPSDM.mWGS84
LongitudeDGPSDM.mWGS84
HeadingGyrodeg 
SOGDGPSknotsSpeed over ground
COGDGPSdegCourse over ground
DepthEcho soundermeters200 kHz
Missing or incorrect values are displayed as -999
Navigation data collected by the RV Zeeleeuw from 2003-03-24 07:33:44 to 2003-03-24 16:04:33
                                                                                    Next 1000 lines
Time Latitude Longitude Heading SOG COG Depth
2003-03-24 07:33:52 51°13.597 2°56.105 128.2   143 8.5
2003-03-24 07:33:57 51°13.597 2°56.105 128.2   170 8.5
2003-03-24 07:34:02 51°13.597 2°56.105 128.2   94 8.5
2003-03-24 07:34:07 51°13.598 2°56.105 127.8   66 8.4
2003-03-24 07:34:12 51°13.599 2°56.106 126.9 0.1 87 8.4
2003-03-24 07:34:17 51°13.6 2°56.106 125.5 0.1 171 8.4
2003-03-24 07:34:21 51°13.599 2°56.105 124.8 0.1 189 8.5
2003-03-24 07:34:27 51°13.598 2°56.105 124 0.1 192 8.4
2003-03-24 07:34:32 51°13.598 2°56.105 122.9 0.1 200 8.5
2003-03-24 07:34:37 51°13.598 2°56.105 121.9 0.1 202 8.5
2003-03-24 07:34:41 51°13.597 2°56.105 120.9 0.1 197 8.5
2003-03-24 07:34:47 51°13.598 2°56.105 119.8 0.1 201 8.5
2003-03-24 07:34:51 51°13.598 2°56.105 118.7 0.1 209 8.5
2003-03-24 07:34:57 51°13.598 2°56.105 117.7 0.1 196 8.5
2003-03-24 07:35:01 51°13.598 2°56.105 116.7 0.1 166 8.5
2003-03-24 07:35:07 51°13.599 2°56.105 115.6 0.1 180 8.6
2003-03-24 07:35:11 51°13.598 2°56.103 114.6 0.1 213 8.5
2003-03-24 07:35:17 51°13.597 2°56.103 113.8 0.1 203 8.6
2003-03-24 07:35:21 51°13.597 2°56.103 112.9 0.2 204 8.6
2003-03-24 07:35:27 51°13.597 2°56.102 112.1 0.2 223 8.6
2003-03-24 07:35:31 51°13.597 2°56.102 111.6 0.3 268 8.6
2003-03-24 07:35:36 51°13.597 2°56.1 111.3 0.5 301 8.6
2003-03-24 07:35:41 51°13.598 2°56.098 111 0.8 296 8.7
2003-03-24 07:35:47 51°13.599 2°56.094 111 1.3 293 8.7
2003-03-24 07:35:52 51°13.601 2°56.09 111.1 1.8 291 8.7
2003-03-24 07:35:57 51°13.602 2°56.085 111.3 2.2 292 -999
2003-03-24 07:36:03 51°13.604 2°56.079 111.5 2.6 292 -999
2003-03-24 07:36:08 51°13.606 2°56.072 111.5 2.9 293 -999
2003-03-24 07:36:13 51°13.607 2°56.066 111.5 3.1 292 -999
2003-03-24 07:36:18 51°13.608 2°56.059 111.3 3.3 291 -999
2003-03-24 07:36:23 51°13.61 2°56.053 111.2 3.5 290 -999
2003-03-24 07:36:28 51°13.612 2°56.045 110.8 3.6 291 -999
2003-03-24 07:36:33 51°13.613 2°56.038 109.7 3.5 290 -999
2003-03-24 07:36:38 51°13.615 2°56.031 108.2 3.3 288 -999
2003-03-24 07:36:43 51°13.616 2°56.026 107.3 3 287 6.3
2003-03-24 07:36:47 51°13.616 2°56.023 106.7 2.7 286 10.2
2003-03-24 07:36:51 51°13.617 2°56.021 107 2 287 10.2
2003-03-24 07:36:57 51°13.617 2°56.018 108.8 1.5 288 10.2
2003-03-24 07:37:01 51°13.617 2°56.016 111 1.1 289 10.2
2003-03-24 07:37:07 51°13.617 2°56.013 112 1 289 10.2
2003-03-24 07:37:12 51°13.617 2°56.01 112.5 1.2 290 10.1
2003-03-24 07:37:17 51°13.618 2°56.007 113.1 1.3 288 10.1
2003-03-24 07:37:22 51°13.618 2°56.004 113.8 1.6 284 10.2
2003-03-24 07:37:27 51°13.619 2°56 114.7 1.8 285 10.2
2003-03-24 07:37:32 51°13.621 2°55.995 115.8 2 293 10.2
2003-03-24 07:37:37 51°13.624 2°55.991 117.1 2.4 294 -999
2003-03-24 07:37:43 51°13.628 2°55.985 118.9 2.7 294 -999
2003-03-24 07:37:48 51°13.63 2°55.978 120.9 3.1 295 -999
2003-03-24 07:37:53 51°13.632 2°55.97 122.6 3.4 297 -999
2003-03-24 07:37:58 51°13.635 2°55.963 124.1 3.6 298 -999
2003-03-24 07:38:03 51°13.637 2°55.955 125.4 3.8 300 -999
2003-03-24 07:38:08 51°13.638 2°55.946 126 4 301 -999
2003-03-24 07:38:13 51°13.641 2°55.937 126.1 4.2 302 -999
2003-03-24 07:38:18 51°13.644 2°55.928 125.6 4.5 302 -999
2003-03-24 07:38:23 51°13.647 2°55.92 124.9 4.6 303 -999
2003-03-24 07:38:29 51°13.651 2°55.909 124.1 4.7 303 -999
2003-03-24 07:38:33 51°13.655 2°55.902 123.2 4.7 303 -999
2003-03-24 07:38:38 51°13.659 2°55.892 121.9 4.9 302 -999
2003-03-24 07:38:43 51°13.663 2°55.883 120.6 4.9 301 -999
2003-03-24 07:38:48 51°13.667 2°55.874 119.3 4.9 299 -999
2003-03-24 07:38:53 51°13.67 2°55.865 118 4.8 299 -999
2003-03-24 07:38:58 51°13.673 2°55.855 116.7 4.8 297 -999
2003-03-24 07:39:03 51°13.675 2°55.846 115.4 4.8 296 -999
2003-03-24 07:39:09 51°13.677 2°55.834 113.9 4.8 295 -999
2003-03-24 07:39:13 51°13.679 2°55.826 112.3 4.7 294 -999
2003-03-24 07:39:17 51°13.681 2°55.819 110.6 4.7 294 -999
2003-03-24 07:39:23 51°13.684 2°55.807 108.1 4.7 294 -999
2003-03-24 07:39:28 51°13.687 2°55.798 105.7 4.5 291 -999
2003-03-24 07:39:33 51°13.689 2°55.789 103.3 4.4 288 -999
2003-03-24 07:39:38 51°13.692 2°55.781 100.8 4.2 285 5.5
2003-03-24 07:39:43 51°13.692 2°55.772 98.9 4.1 284 -999
2003-03-24 07:39:47 51°13.692 2°55.765 96.9 4 281 5.3
2003-03-24 07:39:52 51°13.693 2°55.756 94.4 3.9 278 5.7
2003-03-24 07:39:57 51°13.694 2°55.748 92 3.7 277 11.5
2003-03-24 07:40:01 51°13.695 2°55.743 89.7 3.4 276 11.5
2003-03-24 07:40:07 51°13.695 2°55.737 86.1 2.7 275 11.5
2003-03-24 07:40:12 51°13.696 2°55.734 81.3 2 276 11.5
2003-03-24 07:40:17 51°13.696 2°55.732 76 1.2 280 11.5
2003-03-24 07:40:22 51°13.696 2°55.73 70.8 0.8 292 11.5
2003-03-24 07:40:27 51°13.696 2°55.729 65.9 0.6 306 11.5
2003-03-24 07:40:30 51°13.697 2°55.729 60.8 0.6 344 11.6
2003-03-24 07:40:37 51°13.699 2°55.729 55.5 0.7 10 11.6
2003-03-24 07:40:42 51°13.7 2°55.729 51.1 0.9 15 11.6
2003-03-24 07:40:47 51°13.702 2°55.73 44.6 1.1 17 11.6
2003-03-24 07:40:52 51°13.703 2°55.731 39.2 1.2 18 11.6
2003-03-24 07:40:57 51°13.705 2°55.732 33.8 1.4 18 11.6
2003-03-24 07:41:01 51°13.707 2°55.733 28.5 1.6 13 11.6
2003-03-24 07:41:07 51°13.71 2°55.734 23.2 1.8 11 11.6
2003-03-24 07:41:12 51°13.713 2°55.734 18.1 1.9 8 11.6
2003-03-24 07:41:17 51°13.716 2°55.734 12.9 2.1 5 11.6
2003-03-24 07:41:21 51°13.719 2°55.731 7.6 2.3 2 11.4
2003-03-24 07:41:27 51°13.724 2°55.727 2 2.5 356 10.9
2003-03-24 07:41:32 51°13.728 2°55.724 357.5 2.7 350 10.7
2003-03-24 07:41:37 51°13.732 2°55.722 350.5 2.8 346 10.5
2003-03-24 07:41:41 51°13.736 2°55.721 344.3 3 341 10.4
2003-03-24 07:41:47 51°13.741 2°55.717 338.7 3.1 337 9.1
2003-03-24 07:41:51 51°13.745 2°55.715 334.9 3.3 333 10.3
2003-03-24 07:41:57 51°13.75 2°55.712 333.1 3.4 330 10.3
2003-03-24 07:42:02 51°13.754 2°55.708 333 3.5 328 10.3
2003-03-24 07:42:07 51°13.758 2°55.703 332.6 3.6 328 10.3
2003-03-24 07:42:12 51°13.763 2°55.698 332.3 3.8 327 10.3
2003-03-24 07:42:17 51°13.767 2°55.694 331.9 3.9 327 10.3
2003-03-24 07:42:20 51°13.77 2°55.691 331.4 4 326 10.4
2003-03-24 07:42:27 51°13.777 2°55.684 330.9 4.3 326 10.5
2003-03-24 07:42:31 51°13.781 2°55.68 330.2 4.6 326 10.4
2003-03-24 07:42:37 51°13.789 2°55.673 330.2 4.9 326 10.6
2003-03-24 07:42:41 51°13.794 2°55.669 331.3 5.2 327 10.7
2003-03-24 07:42:47 51°13.802 2°55.662 333.7 5.4 328 10.7
2003-03-24 07:42:51 51°13.808 2°55.657 336.1 5.6 330 10.7
2003-03-24 07:42:57 51°13.817 2°55.65 337.7 5.8 332 10.7
2003-03-24 07:43:02 51°13.825 2°55.644 338.2 6 333 10.7
2003-03-24 07:43:07 51°13.832 2°55.638 338.2 6.2 334 10.7
2003-03-24 07:43:11 51°13.838 2°55.633 338 6.4 334 10.7
2003-03-24 07:43:17 51°13.848 2°55.625 337.7 6.5 334 10.6
2003-03-24 07:43:21 51°13.854 2°55.619 337.5 6.7 333 10.5
2003-03-24 07:43:27 51°13.864 2°55.611 337.5 6.8 333 10.5
2003-03-24 07:43:32 51°13.873 2°55.605 337.5 6.9 333 10.5
2003-03-24 07:43:37 51°13.882 2°55.598 338.6 7 334 10.5
2003-03-24 07:43:41 51°13.888 2°55.593 339.7 7.1 335 10.5
2003-03-24 07:43:47 51°13.898 2°55.584 340.4 7.2 335 10.5
2003-03-24 07:43:52 51°13.907 2°55.577 340.8 7.2 336 10.6
2003-03-24 07:43:57 51°13.916 2°55.571 341.1 7.3 336 10.5
2003-03-24 07:44:01 51°13.923 2°55.565 341.4 7.3 336 10.5
2003-03-24 07:44:07 51°13.934 2°55.557 341.5 7.4 336 10.5
2003-03-24 07:44:12 51°13.944 2°55.55 341.5 7.4 336 10.5
2003-03-24 07:44:17 51°13.954 2°55.544 341.6 7.5 336 10.5
2003-03-24 07:44:21 51°13.961 2°55.538 341.8 7.6 337 10.5
2003-03-24 07:44:27 51°13.973 2°55.531 342 7.5 337 10.5
2003-03-24 07:44:32 51°13.983 2°55.524 342.1 7.5 337 10.4
2003-03-24 07:44:37 51°13.992 2°55.518 342 7.5 337 10.4
2003-03-24 07:44:41 51°14 2°55.513 341.6 7.6 337 10.4
2003-03-24 07:44:47 51°14.012 2°55.504 341.1 7.6 336 10.3
2003-03-24 07:44:51 51°14.019 2°55.499 340.4 7.6 335 10.3
2003-03-24 07:44:57 51°14.031 2°55.491 339.7 7.6 335 10.3
2003-03-24 07:45:02 51°14.04 2°55.484 339.5 7.6 335 10.2
2003-03-24 07:45:06 51°14.048 2°55.478 339.4 7.6 335 10.2
2003-03-24 07:45:12 51°14.059 2°55.469 339.2 7.6 334 10.2
2003-03-24 07:45:17 51°14.068 2°55.462 339.1 7.6 334 10
2003-03-24 07:45:21 51°14.076 2°55.456 339.1 7.6 334 9.7
2003-03-24 07:45:27 51°14.087 2°55.447 339.3 7.6 334 10.2
2003-03-24 07:45:32 51°14.096 2°55.44 339.6 7.7 334 10.3
2003-03-24 07:45:37 51°14.106 2°55.433 339.6 7.7 334 10.2
2003-03-24 07:45:41 51°14.114 2°55.427 339.3 7.8 335 10.2
2003-03-24 07:45:47 51°14.127 2°55.419 338.9 7.9 335 10.3
2003-03-24 07:45:51 51°14.135 2°55.413 338.2 8 334 10.3
2003-03-24 07:45:57 51°14.148 2°55.402 337.5 8.3 333 10.3
2003-03-24 07:46:01 51°14.156 2°55.395 336.7 8.6 332 10.3
2003-03-24 07:46:07 51°14.169 2°55.383 335.5 8.8 331 10.4
2003-03-24 07:46:11 51°14.177 2°55.375 333.6 9 329 10.3
2003-03-24 07:46:17 51°14.19 2°55.362 331.3 9.1 327 10.3
2003-03-24 07:46:21 51°14.199 2°55.352 328.7 9.3 325 10.3
2003-03-24 07:46:27 51°14.211 2°55.336 326.2 9.4 322 10.4
2003-03-24 07:46:32 51°14.221 2°55.322 323.7 9.5 320 10.3
2003-03-24 07:46:37 51°14.23 2°55.308 322 9.6 318 10.4
2003-03-24 07:46:41 51°14.238 2°55.296 320.7 9.7 317 10.4
2003-03-24 07:46:47 51°14.25 2°55.277 319.9 9.8 316 10.4
2003-03-24 07:46:51 51°14.258 2°55.265 319.3 9.9 315 10.4
2003-03-24 07:46:57 51°14.269 2°55.245 318.6 10 314 10.5
2003-03-24 07:47:02 51°14.279 2°55.229 317.9 10.1 313 10.6
2003-03-24 07:47:07 51°14.288 2°55.212 317.4 10.1 312 10.5
2003-03-24 07:47:12 51°14.297 2°55.196 316.7 10 311 10.6
2003-03-24 07:47:17 51°14.306 2°55.179 315.9 10 311 10.6
2003-03-24 07:47:22 51°14.315 2°55.162 315.4 10.1 310 10.6
2003-03-24 07:47:27 51°14.324 2°55.145 315 10.1 310 10.7
2003-03-24 07:47:31 51°14.331 2°55.131 314.9 10.1 310 10.2
2003-03-24 07:47:37 51°14.342 2°55.11 314.9 10.1 309 10.3
2003-03-24 07:47:41 51°14.349 2°55.096 315.1 10.2 309 10.6
2003-03-24 07:47:47 51°14.36 2°55.075 315.3 10.2 310 10.9
2003-03-24 07:47:52 51°14.369 2°55.057 315.3 10.3 310 11.1
2003-03-24 07:47:57 51°14.378 2°55.04 315.3 10.3 310 10.9
2003-03-24 07:48:01 51°14.386 2°55.025 315.3 10.5 309 11
2003-03-24 07:48:07 51°14.397 2°55.003 314.9 10.6 309 11
2003-03-24 07:48:11 51°14.405 2°54.988 314.4 10.8 309 11.2
2003-03-24 07:48:17 51°14.416 2°54.966 315.9 10.9 309 11.1
2003-03-24 07:48:22 51°14.427 2°54.949 319.1 11.1 312 11.1
2003-03-24 07:48:27 51°14.439 2°54.932 323.3 11.1 315 10.8
2003-03-24 07:48:32 51°14.451 2°54.917 327.2 11.2 319 10.5
2003-03-24 07:48:37 51°14.463 2°54.902 330 11.4 322 10.4
2003-03-24 07:48:41 51°14.474 2°54.89 332.3 11.5 324 10.3
2003-03-24 07:48:47 51°14.49 2°54.873 333.8 11.6 326 10.4
2003-03-24 07:48:52 51°14.504 2°54.859 334.5 11.7 327 10.4
2003-03-24 07:48:57 51°14.518 2°54.845 334.7 11.8 327 10.5
2003-03-24 07:49:01 51°14.529 2°54.834 335 11.9 328 10.2
2003-03-24 07:49:07 51°14.546 2°54.817 335.1 12 328 10.4
2003-03-24 07:49:12 51°14.56 2°54.803 335 12.1 328 10.2
2003-03-24 07:49:17 51°14.574 2°54.788 334.8 12.1 328 10.2
2003-03-24 07:49:21 51°14.586 2°54.777 335 12.2 328 10.1
2003-03-24 07:49:27 51°14.603 2°54.76 335.3 12.2 328 10
2003-03-24 07:49:32 51°14.618 2°54.746 335.9 12.3 329 10
2003-03-24 07:49:37 51°14.632 2°54.733 336.4 12.3 329 9.9
2003-03-24 07:49:42 51°14.647 2°54.72 337.4 12.3 330 9.9
2003-03-24 07:49:47 51°14.662 2°54.707 338.3 12.3 332 9.9
2003-03-24 07:49:52 51°14.677 2°54.694 338.9 12.3 332 9.9
2003-03-24 07:49:57 51°14.692 2°54.682 339.5 12.3 333 9.8
2003-03-24 07:50:01 51°14.704 2°54.672 339.7 12.3 333 9.9
2003-03-24 07:50:07 51°14.723 2°54.658 340.1 12.3 333 9.9
2003-03-24 07:50:12 51°14.738 2°54.645 340.2 12.4 333 9.8
2003-03-24 07:50:17 51°14.754 2°54.633 340.2 12.4 333 9.8
2003-03-24 07:50:22 51°14.769 2°54.621 340 12.5 333 9.8
2003-03-24 07:50:27 51°14.785 2°54.608 339.8 12.6 333 9.8
2003-03-24 07:50:32 51°14.801 2°54.595 339.7 12.6 333 9.7
2003-03-24 07:50:37 51°14.817 2°54.583 339.9 12.7 333 9.7
2003-03-24 07:50:41 51°14.829 2°54.573 340.1 12.8 333 9.8
2003-03-24 07:50:47 51°14.848 2°54.558 340.3 12.9 333 9.6
2003-03-24 07:50:52 51°14.864 2°54.546 340.4 12.9 334 9.7
2003-03-24 07:50:57 51°14.88 2°54.533 340.5 12.9 334 9.8
2003-03-24 07:51:01 51°14.893 2°54.523 340.5 12.9 334 9.6
2003-03-24 07:51:07 51°14.913 2°54.509 340.7 12.9 334 9.5
2003-03-24 07:51:11 51°14.926 2°54.499 340.3 12.9 334 9.4
2003-03-24 07:51:17 51°14.945 2°54.483 340 12.9 334 9.3
2003-03-24 07:51:22 51°14.961 2°54.47 339.5 12.9 333 9.1
2003-03-24 07:51:27 51°14.977 2°54.457 339.4 12.9 333 9.1
2003-03-24 07:51:32 51°14.992 2°54.444 338.9 12.9 333 9
2003-03-24 07:51:37 51°15.008 2°54.431 338.8 12.9 333 9
2003-03-24 07:51:41 51°15.021 2°54.421 338.9 12.8 333 8.9
2003-03-24 07:51:47 51°15.04 2°54.406 339 12.8 333 9
2003-03-24 07:51:52 51°15.056 2°54.394 339.2 12.8 333 8.9
2003-03-24 07:51:57 51°15.072 2°54.381 339.3 12.9 333 9
2003-03-24 07:52:02 51°15.088 2°54.368 339.3 12.8 334 9
2003-03-24 07:52:07 51°15.104 2°54.356 339.3 12.8 333 9
2003-03-24 07:52:11 51°15.117 2°54.345 338.8 12.8 333 9.1
2003-03-24 07:52:17 51°15.136 2°54.33 338.7 12.8 333 9.2
2003-03-24 07:52:21 51°15.148 2°54.319 339 12.8 333 9.2
2003-03-24 07:52:27 51°15.167 2°54.304 339.3 12.8 333 9.2
2003-03-24 07:52:32 51°15.183 2°54.291 339.3 12.8 333 9.2
2003-03-24 07:52:37 51°15.198 2°54.278 339 12.8 332 9.3
2003-03-24 07:52:41 51°15.211 2°54.268 338.9 12.8 332 9.4
2003-03-24 07:52:47 51°15.23 2°54.252 339 12.9 333 9.5
2003-03-24 07:52:51 51°15.243 2°54.241 339.2 13 333 9.5
2003-03-24 07:52:57 51°15.263 2°54.226 339.6 13.2 333 9.5
2003-03-24 07:53:01 51°15.276 2°54.215 339.8 13.3 334 9.6
2003-03-24 07:53:07 51°15.296 2°54.199 340.3 13.5 333 9.6
2003-03-24 07:53:11 51°15.31 2°54.189 340.3 13.6 334 9.7
2003-03-24 07:53:17 51°15.33 2°54.173 340.2 13.7 333 9.7
2003-03-24 07:53:21 51°15.344 2°54.162 339.7 13.7 333 9.7
2003-03-24 07:53:27 51°15.364 2°54.146 339.9 13.8 333 9.9
2003-03-24 07:53:31 51°15.378 2°54.135 340.1 13.8 334 9.9
2003-03-24 07:53:36 51°15.395 2°54.121 340.3 13.9 334 10
2003-03-24 07:53:41 51°15.413 2°54.108 340.4 14 334 10.1
2003-03-24 07:53:47 51°15.434 2°54.092 340.5 14 334 10.1
2003-03-24 07:53:52 51°15.451 2°54.078 340.4 14.1 334 10.3
2003-03-24 07:53:57 51°15.469 2°54.064 339.6 14.1 334 10.3
2003-03-24 07:54:01 51°15.483 2°54.053 339.3 14.1 333 10.4
2003-03-24 07:54:07 51°15.503 2°54.035 338.9 14.1 332 10.4
2003-03-24 07:54:12 51°15.521 2°54.021 338.9 14.2 332 10.5
2003-03-24 07:54:17 51°15.538 2°54.007 339.1 14.2 332 10.5
2003-03-24 07:54:22 51°15.556 2°53.992 339.1 14.2 332 10.6
2003-03-24 07:54:27 51°15.573 2°53.978 339.1 14.2 333 10.7
2003-03-24 07:54:31 51°15.588 2°53.967 339.6 14.2 333 10.7
2003-03-24 07:54:37 51°15.609 2°53.95 339.6 14.2 333 10.8
2003-03-24 07:54:41 51°15.623 2°53.939 338.9 14.2 333 10.9
2003-03-24 07:54:47 51°15.644 2°53.921 338.2 14.2 332 11
2003-03-24 07:54:52 51°15.661 2°53.906 337.6 14.2 331 11
2003-03-24 07:54:57 51°15.678 2°53.89 337 14.2 331 11.1
2003-03-24 07:55:01 51°15.692 2°53.878 336.7 14.2 331 11.2
2003-03-24 07:55:07 51°15.712 2°53.859 336.6 14.3 330 11.2
2003-03-24 07:55:11 51°15.726 2°53.846 336.7 14.3 330 11.3
2003-03-24 07:55:17 51°15.746 2°53.828 337 14.2 330 11.4
2003-03-24 07:55:21 51°15.76 2°53.816 337.1 14.2 331 11.4
2003-03-24 07:55:27 51°15.781 2°53.797 337.3 14.3 331 11.5
2003-03-24 07:55:31 51°15.795 2°53.784 337.3 14.3 331 11.6
2003-03-24 07:55:37 51°15.816 2°53.766 337.2 14.3 331 11.6
2003-03-24 07:55:41 51°15.829 2°53.754 336.9 14.3 331 11.7
2003-03-24 07:55:47 51°15.85 2°53.735 336.8 14.3 331 11.7
2003-03-24 07:55:51 51°15.864 2°53.723 337.1 14.3 331 11.8
2003-03-24 07:55:57 51°15.885 2°53.706 338.8 14.3 333 11.8
2003-03-24 07:56:02 51°15.903 2°53.692 339.6 14.3 334 11.9
2003-03-24 07:56:07 51°15.921 2°53.679 339.6 14.3 334 11.9
2003-03-24 07:56:11 51°15.935 2°53.668 340.1 14.3 334 12
2003-03-24 07:56:17 51°15.957 2°53.652 340.2 14.3 335 12
2003-03-24 07:56:21 51°15.971 2°53.641 340 14.3 335 12.1
2003-03-24 07:56:27 51°15.993 2°53.624 340.1 14.3 334 12.1
2003-03-24 07:56:32 51°16.011 2°53.611 340.2 14.3 334 12.1
2003-03-24 07:56:37 51°16.028 2°53.597 340 14.3 334 12.2
2003-03-24 07:56:41 51°16.043 2°53.586 339.8 14.3 334 12.2
2003-03-24 07:56:47 51°16.064 2°53.57 340 14.3 334 12.3
2003-03-24 07:56:52 51°16.082 2°53.556 340.2 14.3 334 12.2
2003-03-24 07:56:57 51°16.1 2°53.543 340.2 14.3 334 12.3
2003-03-24 07:57:01 51°16.114 2°53.532 340.4 14.3 335 12.3
2003-03-24 07:57:07 51°16.136 2°53.516 340.5 14.2 335 12.4
2003-03-24 07:57:12 51°16.153 2°53.503 340.4 14.2 335 12.4
2003-03-24 07:57:17 51°16.171 2°53.489 340.3 14.2 335 12.4
2003-03-24 07:57:21 51°16.186 2°53.478 340.2 14.2 335 12.4
2003-03-24 07:57:27 51°16.207 2°53.462 340.3 14.2 335 12.5
2003-03-24 07:57:32 51°16.225 2°53.449 340.4 14.2 335 12.5
2003-03-24 07:57:37 51°16.243 2°53.435 340.4 14.2 335 12.5
2003-03-24 07:57:42 51°16.261 2°53.422 340.4 14.2 335 12.5
2003-03-24 07:57:47 51°16.279 2°53.409 340.7 14.2 335 12.5
2003-03-24 07:57:52 51°16.296 2°53.395 340.4 14.2 335 12.6
2003-03-24 07:57:57 51°16.314 2°53.382 340.3 14.2 335 12.6
2003-03-24 07:58:01 51°16.329 2°53.371 340.3 14.2 335 12.7
2003-03-24 07:58:07 51°16.35 2°53.355 340.4 14.2 335 12.7
2003-03-24 07:58:12 51°16.368 2°53.342 340.4 14.2 335 12.7
2003-03-24 07:58:17 51°16.386 2°53.328 340 14.2 335 12.6
2003-03-24 07:58:22 51°16.403 2°53.314 339.8 14.2 334 12.7
2003-03-24 07:58:27 51°16.421 2°53.3 339.8 14.1 334 12.6
2003-03-24 07:58:32 51°16.439 2°53.286 339.9 14.2 333 12.7
2003-03-24 07:58:37 51°16.456 2°53.273 340.3 14.2 334 12.6
2003-03-24 07:58:41 51°16.47 2°53.262 340.5 14.2 334 12.5
2003-03-24 07:58:47 51°16.492 2°53.246 340.7 14.2 335 12.6
2003-03-24 07:58:51 51°16.506 2°53.235 340.6 14.2 335 12.5
2003-03-24 07:58:57 51°16.527 2°53.219 340.4 14.2 335 12.4
2003-03-24 07:59:01 51°16.541 2°53.209 340.4 14.2 335 12.3
2003-03-24 07:59:07 51°16.563 2°53.192 340.2 14.2 334 12.2
2003-03-24 07:59:11 51°16.577 2°53.181 338.8 14.1 334 12.2
2003-03-24 07:59:17 51°16.598 2°53.164 338.2 14.1 333 12.1
2003-03-24 07:59:21 51°16.612 2°53.152 337.4 14.2 332 12.1
2003-03-24 07:59:27 51°16.632 2°53.134 336.8 14.2 331 12
2003-03-24 07:59:31 51°16.646 2°53.121 336.1 14.1 331 11.9
2003-03-24 07:59:37 51°16.666 2°53.103 336 14.2 330 11.8
2003-03-24 07:59:42 51°16.683 2°53.087 335.9 14.1 330 11.8
2003-03-24 07:59:47 51°16.7 2°53.072 336 14.1 330 11.7
2003-03-24 07:59:52 51°16.717 2°53.056 336 14.1 331 11.6
2003-03-24 07:59:57 51°16.735 2°53.041 336.1 14.1 331 11.5
2003-03-24 08:00:02 51°16.752 2°53.025 336.1 14.2 331 11.4
2003-03-24 08:00:07 51°16.769 2°53.01 336.1 14.2 331 11.1
2003-03-24 08:00:12 51°16.786 2°52.994 336.1 14.2 331 10.9
2003-03-24 08:00:17 51°16.803 2°52.979 336 14.2 331 10.3
2003-03-24 08:00:21 51°16.817 2°52.967 335.9 14.1 331 9.6
2003-03-24 08:00:27 51°16.837 2°52.949 336 14 331 9.1
2003-03-24 08:00:32 51°16.854 2°52.934 336.1 13.9 331 9
2003-03-24 08:00:37 51°16.87 2°52.92 335.9 13.8 331 9
2003-03-24 08:00:41 51°16.884 2°52.908 335.9 13.7 331 9
2003-03-24 08:00:47 51°16.904 2°52.89 335.8 13.7 331 9.2
2003-03-24 08:00:51 51°16.917 2°52.878 336 13.8 331 9.4
2003-03-24 08:00:57 51°16.938 2°52.86 336 13.9 331 9.5
2003-03-24 08:01:02 51°16.955 2°52.845 336.2 14.1 331 9.7
2003-03-24 08:01:07 51°16.973 2°52.83 336.1 14.1 331 9.8
2003-03-24 08:01:10 51°16.983 2°52.821 335.7 14.2 331 9.9
2003-03-24 08:01:17 51°17.007 2°52.8 335.7 14.3 331 10
2003-03-24 08:01:22 51°17.024 2°52.785 335.7 14.3 331 10.2
2003-03-24 08:01:27 51°17.042 2°52.77 335.8 14.3 331 10.3
2003-03-24 08:01:32 51°17.059 2°52.754 336 14.3 331 10.5
2003-03-24 08:01:37 51°17.076 2°52.739 336 14.3 331 10.4
2003-03-24 08:01:41 51°17.09 2°52.726 336 14.4 331 10.5
2003-03-24 08:01:46 51°17.108 2°52.711 335.9 14.4 331 10.2
2003-03-24 08:01:52 51°17.128 2°52.692 335.9 14.4 331 9.9
2003-03-24 08:01:57 51°17.146 2°52.676 336 14.3 331 9.9
2003-03-24 08:02:02 51°17.163 2°52.661 336.1 14.2 330 9.9
2003-03-24 08:02:07 51°17.179 2°52.645 336 14.1 330 10
2003-03-24 08:02:10 51°17.19 2°52.636 336 14.1 330 10.1
2003-03-24 08:02:17 51°17.214 2°52.614 336.1 14.1 330 9.9
2003-03-24 08:02:22 51°17.231 2°52.599 336.5 14.2 331 10
2003-03-24 08:02:27 51°17.248 2°52.584 336.7 14.2 331 10.3
2003-03-24 08:02:32 51°17.265 2°52.568 336.8 14.2 331 10.2
2003-03-24 08:02:37 51°17.282 2°52.551 334.5 14.2 329 10.2
2003-03-24 08:02:41 51°17.295 2°52.537 332.7 14.2 327 10.2
2003-03-24 08:02:46 51°17.312 2°52.52 330.8 14.3 326 10.2
2003-03-24 08:02:52 51°17.331 2°52.497 330.1 14.2 324 10.4
2003-03-24 08:02:57 51°17.346 2°52.478 328.7 14.2 324 10.3
2003-03-24 08:03:02 51°17.362 2°52.46 328.4 14.2 323 10.7
2003-03-24 08:03:07 51°17.378 2°52.44 327.5 14.2 323 10.6
2003-03-24 08:03:10 51°17.387 2°52.428 327.1 14.2 322 10.6
2003-03-24 08:03:17 51°17.409 2°52.401 326.6 14.2 321 10.7
2003-03-24 08:03:22 51°17.424 2°52.381 326.2 14.2 321 10.6
2003-03-24 08:03:27 51°17.439 2°52.361 326.2 14.2 321 10.6
2003-03-24 08:03:32 51°17.455 2°52.341 326.2 14.2 321 10.7
2003-03-24 08:03:37 51°17.47 2°52.321 326.6 14.2 321 10.7
2003-03-24 08:03:41 51°17.483 2°52.306 325.9 14.2 321 10.6
2003-03-24 08:03:46 51°17.497 2°52.284 323.8 14.2 319 10.7
2003-03-24 08:03:52 51°17.515 2°52.259 322.9 14.2 318 10.6
2003-03-24 08:03:57 51°17.529 2°52.237 322.1 14.2 317 10.7
2003-03-24 08:04:02 51°17.543 2°52.215 321.5 14.2 316 10.7
2003-03-24 08:04:07 51°17.557 2°52.193 320.8 14.2 316 10.7
2003-03-24 08:04:10 51°17.565 2°52.18 320.6 14.2 315 10.7
2003-03-24 08:04:17 51°17.584 2°52.148 319.2 14.2 314 10.5
2003-03-24 08:04:22 51°17.597 2°52.124 317.3 14.2 312 10.7
2003-03-24 08:04:27 51°17.61 2°52.1 315.8 14.3 311 10.7
2003-03-24 08:04:32 51°17.622 2°52.075 315.1 14.3 309 10.6
2003-03-24 08:04:37 51°17.634 2°52.051 314.5 14.2 309 10.6
2003-03-24 08:04:41 51°17.644 2°52.031 313.7 14.2 309 10.6
2003-03-24 08:04:47 51°17.659 2°52.002 313.6 14.2 309 10.6
2003-03-24 08:04:52 51°17.671 2°51.976 313.1 14.2 308 10.7
2003-03-24 08:04:57 51°17.683 2°51.952 313 14.3 308 10.6
2003-03-24 08:05:01 51°17.692 2°51.931 311.9 14.3 307 10.5
2003-03-24 08:05:07 51°17.707 2°51.901 311.6 14.3 307 10.5
2003-03-24 08:05:11 51°17.716 2°51.881 311 14.2 306 10.5
2003-03-24 08:05:17 51°17.73 2°51.85 310.9 14.2 306 10.5
2003-03-24 08:05:22 51°17.741 2°51.825 310.8 14.2 306 10.4
2003-03-24 08:05:27 51°17.753 2°51.799 310.7 14.3 306 10.4
2003-03-24 08:05:32 51°17.765 2°51.774 311.2 14.3 306 10.4
2003-03-24 08:05:37 51°17.776 2°51.749 311.1 14.3 306 10.5
2003-03-24 08:05:41 51°17.786 2°51.728 310.9 14.3 306 10.4
2003-03-24 08:05:47 51°17.799 2°51.698 311.1 14.2 306 10.4
2003-03-24 08:05:52 51°17.811 2°51.672 311.2 14.3 306 10.4
2003-03-24 08:05:57 51°17.823 2°51.647 311 14.2 306 10.4
2003-03-24 08:06:01 51°17.832 2°51.626 310.1 14.2 305 10.5
2003-03-24 08:06:07 51°17.845 2°51.595 309.9 14.3 305 10.5
2003-03-24 08:06:12 51°17.856 2°51.569 309.4 14.3 305 10.5
2003-03-24 08:06:16 51°17.865 2°51.548 308.9 14.3 304 10.6
2003-03-24 08:06:21 51°17.876 2°51.522 309 14.3 304 10.6
2003-03-24 08:06:27 51°17.889 2°51.49 309.2 14.3 304 10.7
2003-03-24 08:06:32 51°17.901 2°51.464 309.8 14.3 305 10.8
2003-03-24 08:06:37 51°17.913 2°51.438 310.3 14.3 305 10.9
2003-03-24 08:06:41 51°17.922 2°51.418 310.6 14.3 306 10.9
2003-03-24 08:06:47 51°17.936 2°51.387 310.6 14.3 306 11
2003-03-24 08:06:52 51°17.948 2°51.362 310.6 14.3 306 11.2
2003-03-24 08:06:57 51°17.96 2°51.336 310.6 14.4 306 11.3
2003-03-24 08:07:02 51°17.971 2°51.31 310.4 14.4 306 11.4
2003-03-24 08:07:07 51°17.982 2°51.284 309.9 14.3 305 11.3
2003-03-24 08:07:12 51°17.994 2°51.258 309.6 14.3 305 11.5
2003-03-24 08:07:17 51°18.005 2°51.231 309.3 14.4 304 11.8
2003-03-24 08:07:21 51°18.014 2°51.21 309.3 14.4 305 11.7
2003-03-24 08:07:27 51°18.027 2°51.179 309.8 14.4 305 11.9
2003-03-24 08:07:31 51°18.037 2°51.158 309.9 14.4 305 12.1
2003-03-24 08:07:37 51°18.05 2°51.127 309.7 14.4 305 12.1
2003-03-24 08:07:42 51°18.061 2°51.101 309.5 14.4 305 12.4
2003-03-24 08:07:47 51°18.073 2°51.075 309.5 14.4 305 12.4
2003-03-24 08:07:52 51°18.084 2°51.049 309.6 14.3 305 12.6
2003-03-24 08:07:57 51°18.095 2°51.023 309.5 14.4 305 12.7
2003-03-24 08:08:02 51°18.107 2°50.997 309.4 14.3 305 12.8
2003-03-24 08:08:07 51°18.118 2°50.971 309.8 14.3 305 12.9
2003-03-24 08:08:12 51°18.129 2°50.945 309.9 14.3 305 12.9
2003-03-24 08:08:17 51°18.141 2°50.919 309.5 14.3 305 13
2003-03-24 08:08:21 51°18.15 2°50.898 309.9 14.3 305 13.2
2003-03-24 08:08:26 51°18.161 2°50.872 310 14.3 305 13.2
2003-03-24 08:08:32 51°18.174 2°50.841 309.9 14.3 305 13.2
2003-03-24 08:08:37 51°18.186 2°50.815 309.4 14.3 305 13.4
2003-03-24 08:08:41 51°18.195 2°50.794 309.1 14.3 304 13.3
2003-03-24 08:08:47 51°18.208 2°50.763 308.6 14.3 304 13.4
2003-03-24 08:08:52 51°18.219 2°50.736 308.4 14.2 304 13.5
2003-03-24 08:08:57 51°18.23 2°50.71 308.8 14.3 304 13.6
2003-03-24 08:09:02 51°18.241 2°50.684 309 14.3 304 13.6
2003-03-24 08:09:07 51°18.252 2°50.658 308.8 14.3 304 13.7
2003-03-24 08:09:10 51°18.258 2°50.642 308.4 14.3 304 13.8
2003-03-24 08:09:17 51°18.273 2°50.605 308.4 14.2 303 13.9
2003-03-24 08:09:22 51°18.285 2°50.579 308.8 14.3 304 14
2003-03-24 08:09:27 51°18.296 2°50.553 309.1 14.3 304 14.2
2003-03-24 08:09:32 51°18.307 2°50.527 309.3 14.3 305 14.2
2003-03-24 08:09:37 51°18.319 2°50.5 309.2 14.3 304 14.2
2003-03-24 08:09:41 51°18.328 2°50.479 309 14.3 304 14.2
2003-03-24 08:09:46 51°18.339 2°50.453 308.7 14.4 304 14.2
2003-03-24 08:09:52 51°18.352 2°50.421 308.6 14.3 304 14.4
2003-03-24 08:09:57 51°18.363 2°50.395 309 14.3 304 14.5
2003-03-24 08:10:01 51°18.372 2°50.375 309.3 14.3 304 14.4
2003-03-24 08:10:07 51°18.386 2°50.343 309.1 14.3 304 14.5
2003-03-24 08:10:12 51°18.396 2°50.317 308.8 14.3 304 14.5
2003-03-24 08:10:17 51°18.408 2°50.29 308.8 14.3 304 14.4
2003-03-24 08:10:20 51°18.414 2°50.275 308.7 14.4 304 14.5
2003-03-24 08:10:27 51°18.43 2°50.238 308.6 14.4 304 14.4
2003-03-24 08:10:32 51°18.442 2°50.211 308.9 14.4 304 14.5
2003-03-24 08:10:37 51°18.453 2°50.186 309.1 14.3 304 14.4
2003-03-24 08:10:42 51°18.464 2°50.159 309 14.3 304 14.4
2003-03-24 08:10:47 51°18.475 2°50.133 308.6 14.3 304 14.4
2003-03-24 08:10:52 51°18.486 2°50.106 308.7 14.3 304 14.4
2003-03-24 08:10:57 51°18.497 2°50.08 309.1 14.2 304 14.2
2003-03-24 08:11:01 51°18.506 2°50.06 309.2 14.2 304 14.2
2003-03-24 08:11:07 51°18.519 2°50.028 309.1 14.2 304 14
2003-03-24 08:11:11 51°18.528 2°50.008 309.1 14.2 304 13.9
2003-03-24 08:11:17 51°18.541 2°49.977 309.1 14.2 304 13.7
2003-03-24 08:11:21 51°18.549 2°49.956 308.8 14.2 304 13.6
2003-03-24 08:11:27 51°18.563 2°49.925 309 14.2 304 13.5
2003-03-24 08:11:32 51°18.574 2°49.899 309.1 14.2 304 13.3
2003-03-24 08:11:37 51°18.585 2°49.873 309.2 14.2 304 13.3
2003-03-24 08:11:41 51°18.594 2°49.852 309.2 14.2 304 13.2
2003-03-24 08:11:47 51°18.608 2°49.821 309.1 14.2 304 13.3
2003-03-24 08:11:52 51°18.619 2°49.795 309.1 14.3 304 13
2003-03-24 08:11:57 51°18.63 2°49.769 309.1 14.3 304 12.3
2003-03-24 08:12:02 51°18.641 2°49.743 309.1 14.3 304 12.3
2003-03-24 08:12:07 51°18.652 2°49.717 309.2 14.3 304 12.2
2003-03-24 08:12:12 51°18.663 2°49.691 309 14.3 304 12.2
2003-03-24 08:12:16 51°18.672 2°49.67 308.7 14.3 304 12
2003-03-24 08:12:21 51°18.683 2°49.644 308.7 14.3 304 11.6
2003-03-24 08:12:27 51°18.696 2°49.613 308.9 14.3 304 11.3
2003-03-24 08:12:32 51°18.708 2°49.587 309.1 14.2 304 11.2
2003-03-24 08:12:37 51°18.718 2°49.56 309.1 14.2 304 11
2003-03-24 08:12:41 51°18.728 2°49.54 309.3 14.2 304 10.9
2003-03-24 08:12:47 51°18.741 2°49.508 309.1 14.2 304 10.9
2003-03-24 08:12:52 51°18.752 2°49.482 308.9 14.2 304 10.7
2003-03-24 08:12:57 51°18.762 2°49.456 309.3 14.3 304 10.6
2003-03-24 08:13:02 51°18.774 2°49.43 309.4 14.3 304 10.7
2003-03-24 08:13:07 51°18.784 2°49.404 309.4 14.3 304 10.7
2003-03-24 08:13:12 51°18.796 2°49.378 309.4 14.3 304 10.6
2003-03-24 08:13:17 51°18.807 2°49.352 309.4 14.3 304 10.9
2003-03-24 08:13:21 51°18.816 2°49.331 309.2 14.4 304 11.1
2003-03-24 08:13:26 51°18.827 2°49.305 309.1 14.4 304 11.5
2003-03-24 08:13:32 51°18.841 2°49.272 308.9 14.5 304 11.6
2003-03-24 08:13:37 51°18.852 2°49.246 309.1 14.5 304 12
2003-03-24 08:13:42 51°18.863 2°49.219 309.2 14.5 304 11.5
2003-03-24 08:13:47 51°18.875 2°49.193 309.5 14.5 304 11.3
2003-03-24 08:13:52 51°18.886 2°49.166 309.5 14.5 304 11.2
2003-03-24 08:13:57 51°18.897 2°49.14 309.4 14.5 304 11.4
2003-03-24 08:14:02 51°18.909 2°49.113 309.3 14.4 304 11.5
2003-03-24 08:14:07 51°18.92 2°49.087 309.2 14.4 304 12
2003-03-24 08:14:12 51°18.931 2°49.061 309.2 14.5 304 12
2003-03-24 08:14:17 51°18.942 2°49.034 309.1 14.5 304 11.9
2003-03-24 08:14:22 51°18.953 2°49.007 308.7 14.5 304 12.2
2003-03-24 08:14:27 51°18.964 2°48.981 309 14.5 304 12.5
2003-03-24 08:14:32 51°18.976 2°48.954 309 14.5 304 12.8
2003-03-24 08:14:37 51°18.987 2°48.928 309.2 14.5 304 12.8
2003-03-24 08:14:42 51°18.999 2°48.901 309.3 14.6 304 13.4
2003-03-24 08:14:47 51°19.01 2°48.875 309.3 14.6 304 13.7
2003-03-24 08:14:52 51°19.021 2°48.848 309 14.6 304 14.1
2003-03-24 08:14:57 51°19.032 2°48.821 308.8 14.5 304 14.3
2003-03-24 08:15:01 51°19.041 2°48.799 308.8 14.6 304 14.5
2003-03-24 08:15:07 51°19.055 2°48.768 309.1 14.6 304 14.6
2003-03-24 08:15:13 51°19.068 2°48.736 309.1 14.5 304 14.7
2003-03-24 08:15:16 51°19.075 2°48.72 309.1 14.5 304 14.9
2003-03-24 08:15:21 51°19.087 2°48.693 309.1 14.5 304 15
2003-03-24 08:15:27 51°19.101 2°48.662 309.1 14.5 304 15.2
2003-03-24 08:15:32 51°19.112 2°48.635 309.5 14.5 304 15.3
2003-03-24 08:15:37 51°19.124 2°48.609 309.2 14.5 304 15.5
2003-03-24 08:15:42 51°19.135 2°48.582 309 14.4 304 15.7
2003-03-24 08:15:47 51°19.146 2°48.556 309 14.4 304 16
2003-03-24 08:15:52 51°19.157 2°48.529 309.1 14.4 304 16.2
2003-03-24 08:15:57 51°19.168 2°48.502 309.1 14.5 304 16.5
2003-03-24 08:16:01 51°19.177 2°48.481 309.1 14.4 304 16.8
2003-03-24 08:16:07 51°19.19 2°48.45 309.1 14.4 304 17
2003-03-24 08:16:12 51°19.201 2°48.423 309.1 14.4 304 17.2
2003-03-24 08:16:17 51°19.213 2°48.397 309.2 14.4 304 17.3
2003-03-24 08:16:21 51°19.222 2°48.376 309 14.4 304 17.6
2003-03-24 08:16:27 51°19.235 2°48.344 308.8 14.4 304 17.8
2003-03-24 08:16:32 51°19.246 2°48.318 308.9 14.4 304 18
2003-03-24 08:16:37 51°19.257 2°48.291 309.3 14.4 304 18.2
2003-03-24 08:16:42 51°19.268 2°48.265 309.3 14.4 304 18.4
2003-03-24 08:16:47 51°19.279 2°48.239 309.3 14.4 305 18.6
2003-03-24 08:16:52 51°19.29 2°48.212 308.9 14.4 304 18.8
2003-03-24 08:16:57 51°19.302 2°48.186 309.1 14.4 304 18.9
2003-03-24 08:17:02 51°19.313 2°48.16 309.4 14.4 305 19.1
2003-03-24 08:17:07 51°19.324 2°48.134 309.1 14.4 304 19.2
2003-03-24 08:17:12 51°19.336 2°48.107 309.1 14.5 305 19.4
2003-03-24 08:17:16 51°19.345 2°48.086 309.4 14.5 305 19.5
2003-03-24 08:17:21 51°19.356 2°48.06 309.3 14.5 305 19.8
2003-03-24 08:17:27 51°19.37 2°48.028 309.1 14.5 304 20
2003-03-24 08:17:32 51°19.381 2°48.002 309.2 14.5 305 20.2
2003-03-24 08:17:37 51°19.393 2°47.975 309.5 14.5 305 20.5
2003-03-24 08:17:40 51°19.4 2°47.959 309.4 14.5 305 20.6
2003-03-24 08:17:47 51°19.416 2°47.922 309.3 14.5 305 20.9
2003-03-24 08:17:52 51°19.428 2°47.896 309.1 14.5 305 20.9
2003-03-24 08:17:57 51°19.439 2°47.87 308.9 14.5 305 21.1
2003-03-24 08:18:02 51°19.451 2°47.843 309.1 14.5 305 21.2
2003-03-24 08:18:07 51°19.462 2°47.817 309.4 14.5 305 21.5
2003-03-24 08:18:12 51°19.474 2°47.791 309.4 14.6 305 21.6
2003-03-24 08:18:17 51°19.485 2°47.764 309.4 14.6 305 21.6
2003-03-24 08:18:21 51°19.494 2°47.744 309.2 14.5 305 21.7
2003-03-24 08:18:25 51°19.504 2°47.723 309.4 14.5 305 21.8
2003-03-24 08:18:32 51°19.52 2°47.685 309.3 14.6 305 21.9
2003-03-24 08:18:37 51°19.532 2°47.659 309.3 14.6 305 21.9
2003-03-24 08:18:42 51°19.543 2°47.633 309 14.6 305 21.9
2003-03-24 08:18:47 51°19.555 2°47.607 309.1 14.5 305 21.9
2003-03-24 08:18:51 51°19.564 2°47.586 309.1 14.5 305 22
2003-03-24 08:18:57 51°19.578 2°47.555 308.7 14.4 305 22
2003-03-24 08:19:01 51°19.587 2°47.534 308.3 14.3 304 22
2003-03-24 08:19:07 51°19.6 2°47.503 308.3 14.3 304 21.9
2003-03-24 08:19:11 51°19.609 2°47.481 308.4 14.2 304 22
2003-03-24 08:19:17 51°19.622 2°47.451 308.2 14.2 304 21.8
2003-03-24 08:19:21 51°19.63 2°47.43 308 14.1 304 21.9
2003-03-24 08:19:27 51°19.643 2°47.399 308.1 14.1 304 21.8
2003-03-24 08:19:32 51°19.654 2°47.373 308.4 14.1 304 21.8
2003-03-24 08:19:37 51°19.665 2°47.347 308.4 14.1 304 21.8
2003-03-24 08:19:41 51°19.674 2°47.326 308.2 14.1 304 21.7
2003-03-24 08:19:47 51°19.688 2°47.295 308.4 14.1 304 21.8
2003-03-24 08:19:52 51°19.698 2°47.269 308.4 14.1 304 21.8
2003-03-24 08:19:56 51°19.707 2°47.249 307.8 14.1 304 21.8
2003-03-24 08:20:02 51°19.719 2°47.217 307.5 14.1 303 21.7
2003-03-24 08:20:06 51°19.728 2°47.196 307.2 14.1 303 21.6
2003-03-24 08:20:11 51°19.739 2°47.17 307.1 14.1 303 21.6
2003-03-24 08:20:17 51°19.751 2°47.138 306.9 14.1 302 21.5
2003-03-24 08:20:20 51°19.758 2°47.122 306.9 14.1 302 21.4
2003-03-24 08:20:25 51°19.768 2°47.096 307 14.1 302 21.2
2003-03-24 08:20:32 51°19.783 2°47.059 307.2 14.1 303 21.2
2003-03-24 08:20:37 51°19.793 2°47.033 307 14.1 302 21
2003-03-24 08:20:41 51°19.801 2°47.012 307 14.1 302 20.9
2003-03-24 08:20:47 51°19.814 2°46.98 307.3 14.1 302 20.7
2003-03-24 08:20:52 51°19.824 2°46.954 307.3 14.2 303 20.2
2003-03-24 08:20:57 51°19.835 2°46.928 307 14.1 302 20.1
2003-03-24 08:21:01 51°19.843 2°46.907 306.8 14.1 302 19.5
2003-03-24 08:21:07 51°19.856 2°46.875 307 14.1 302 18.9
2003-03-24 08:21:12 51°19.866 2°46.848 306.9 14.1 302 19.5
2003-03-24 08:21:17 51°19.877 2°46.821 306.8 14.2 302 19.5
2003-03-24 08:21:21 51°19.885 2°46.8 306.8 14.2 302 19.4
2003-03-24 08:21:27 51°19.897 2°46.768 306.3 14.2 302 18.9
2003-03-24 08:21:31 51°19.906 2°46.746 306.4 14.2 302 17.6
2003-03-24 08:21:37 51°19.918 2°46.714 306.2 14.2 302 18.2
2003-03-24 08:21:41 51°19.926 2°46.693 306.2 14.2 302 18.3
2003-03-24 08:21:48 51°19.941 2°46.655 306.2 14.2 302 18
2003-03-24 08:21:52 51°19.949 2°46.634 305.8 14.3 301 15.7
2003-03-24 08:21:57 51°19.959 2°46.607 306 14.3 301 17
2003-03-24 08:22:01 51°19.967 2°46.585 306.2 14.2 301 16.6
2003-03-24 08:22:07 51°19.98 2°46.553 306.4 14.3 302 16.5
2003-03-24 08:22:12 51°19.99 2°46.526 306.2 14.3 302 15.1
2003-03-24 08:22:17 51°20 2°46.498 304.4 14.3 301 15.6
2003-03-24 08:22:21 51°20.008 2°46.476 303.5 14.3 299 13.5
2003-03-24 08:22:27 51°20.019 2°46.442 302.4 14.2 298 15.6
2003-03-24 08:22:32 51°20.028 2°46.413 301.6 14.2 297 15.9
2003-03-24 08:22:37 51°20.037 2°46.385 300 14.3 297 15.6
2003-03-24 08:22:41 51°20.043 2°46.362 298.7 14.3 295 15.3
2003-03-24 08:22:47 51°20.053 2°46.327 297.7 14.3 294 13.8
2003-03-24 08:22:52 51°20.061 2°46.298 296.8 14.3 293 12.3
2003-03-24 08:22:57 51°20.068 2°46.269 295.8 14.3 293 13.5
2003-03-24 08:23:01 51°20.074 2°46.245 295.4 14.2 292 14.9
2003-03-24 08:23:07 51°20.083 2°46.21 294.6 14.2 292 13.3
2003-03-24 08:23:12 51°20.089 2°46.18 294.2 14.3 290 14.9
2003-03-24 08:23:17 51°20.097 2°46.151 294.3 14.4 291 14.8
2003-03-24 08:23:21 51°20.102 2°46.127 294.3 14.4 290 13.7
2003-03-24 08:23:27 51°20.11 2°46.091 293.2 14.4 290 14.8
2003-03-24 08:23:32 51°20.117 2°46.061 291.9 14.4 289 15.4
2003-03-24 08:23:37 51°20.124 2°46.031 291.4 14.4 289 15.6
2003-03-24 08:23:41 51°20.128 2°46.006 290.3 14.4 287 16.2
2003-03-24 08:23:47 51°20.135 2°45.97 290.3 14.4 287 13.8
2003-03-24 08:23:51 51°20.139 2°45.946 289.8 14.4 286 14.4
2003-03-24 08:23:57 51°20.146 2°45.909 289.5 14.3 286 13.8
2003-03-24 08:24:01 51°20.15 2°45.885 288.8 14.3 286 14.5
2003-03-24 08:24:07 51°20.156 2°45.848 289.1 14.3 285 15.1
2003-03-24 08:24:11 51°20.16 2°45.824 289.3 14.3 285 15.8
2003-03-24 08:24:17 51°20.166 2°45.786 289.3 14.4 286 16.1
2003-03-24 08:24:22 51°20.171 2°45.755 288.8 14.4 285 16.7
2003-03-24 08:24:27 51°20.176 2°45.725 288.8 14.4 285 16.2
2003-03-24 08:24:32 51°20.181 2°45.694 289 14.4 285 14.3
2003-03-24 08:24:37 51°20.186 2°45.663 289.5 14.5 285 18.1
2003-03-24 08:24:41 51°20.19 2°45.639 289.5 14.4 286 19.5
2003-03-24 08:24:47 51°20.197 2°45.603 289.5 14.5 286 20.4
2003-03-24 08:24:52 51°20.202 2°45.572 289.9 14.5 286 21
2003-03-24 08:24:57 51°20.207 2°45.541 289.5 14.5 286 21.5
2003-03-24 08:25:02 51°20.213 2°45.511 289.6 14.5 286 21.8
2003-03-24 08:25:07 51°20.218 2°45.481 289.8 14.4 286 21.7
2003-03-24 08:25:11 51°20.223 2°45.457 289.3 14.4 286 21.9
2003-03-24 08:25:17 51°20.229 2°45.42 289.2 14.4 285 22.4
2003-03-24 08:25:21 51°20.233 2°45.395 289.6 14.5 286 22.2
2003-03-24 08:25:27 51°20.24 2°45.359 289.5 14.4 286 22.5
2003-03-24 08:25:32 51°20.245 2°45.328 289.5 14.5 286 22.5
2003-03-24 08:25:37 51°20.251 2°45.297 289.7 14.5 286 23.1
2003-03-24 08:25:40 51°20.255 2°45.279 289.8 14.6 286 23.3
2003-03-24 08:25:47 51°20.262 2°45.236 289.6 14.5 286 23.2
2003-03-24 08:25:52 51°20.268 2°45.205 289.5 14.5 286 23.4
2003-03-24 08:25:57 51°20.274 2°45.174 289.8 14.5 286 23
2003-03-24 08:26:01 51°20.278 2°45.15 289.1 14.5 286 23.6
2003-03-24 08:26:07 51°20.284 2°45.113 288.8 14.4 285 23.8
2003-03-24 08:26:11 51°20.289 2°45.088 288.2 14.5 285 23.9
2003-03-24 08:26:17 51°20.295 2°45.051 288.3 14.5 285 24.3
2003-03-24 08:26:21 51°20.299 2°45.026 288 14.5 285 24.1
2003-03-24 08:26:27 51°20.305 2°44.989 287.7 14.4 285 24.2
2003-03-24 08:26:32 51°20.31 2°44.958 286.6 14.4 284 24.7
2003-03-24 08:26:37 51°20.314 2°44.928 286.2 14.3 283 24.7
2003-03-24 08:26:42 51°20.318 2°44.897 286.1 14.2 283 24.8
2003-03-24 08:26:47 51°20.322 2°44.867 285.8 14.2 282 25
2003-03-24 08:26:52 51°20.326 2°44.836 285.6 14.2 282 25.1
2003-03-24 08:26:57 51°20.33 2°44.806 285.7 14.1 282 25.4
2003-03-24 08:27:02 51°20.334 2°44.775 285.7 14.1 282 25.6
2003-03-24 08:27:07 51°20.338 2°44.745 285.8 14.1 282 25.5
2003-03-24 08:27:12 51°20.341 2°44.715 285.9 14.1 282 25.3
2003-03-24 08:27:17 51°20.345 2°44.684 286.5 14.1 282 25.1
2003-03-24 08:27:21 51°20.348 2°44.66 286.6 14.1 283 25.2
2003-03-24 08:27:27 51°20.354 2°44.623 286.3 14.2 282 25.3
2003-03-24 08:27:31 51°20.357 2°44.599 286.3 14.2 282 25.6
2003-03-24 08:27:37 51°20.362 2°44.562 286.7 14.2 282 25.6
2003-03-24 08:27:41 51°20.366 2°44.538 287.2 14.1 283 25.5
2003-03-24 08:27:47 51°20.371 2°44.501 287 14.2 283 26
2003-03-24 08:27:52 51°20.376 2°44.47 287 14.2 283 26.2
2003-03-24 08:27:57 51°20.38 2°44.439 286.8 14.2 283 26.2
2003-03-24 08:28:01 51°20.384 2°44.415 286.8 14.2 283 26.4
2003-03-24 08:28:06 51°20.388 2°44.384 287.1 14.2 283 26.5
2003-03-24 08:28:12 51°20.394 2°44.347 287.4 14.3 283 26.7
2003-03-24 08:28:17 51°20.399 2°44.316 287.2 14.3 283 26.6
2003-03-24 08:28:21 51°20.403 2°44.291 287 14.3 283 26.6
2003-03-24 08:28:28 51°20.409 2°44.249 286.9 14.3 283 26.6
2003-03-24 08:28:32 51°20.412 2°44.224 287.3 14.3 284 26.7
2003-03-24 08:28:37 51°20.417 2°44.194 287.5 14.3 284 26.8
2003-03-24 08:28:42 51°20.421 2°44.163 287.4 14.3 284 26.9
2003-03-24 08:28:47 51°20.426 2°44.133 287 14.2 284 27.2
2003-03-24 08:28:51 51°20.43 2°44.108 286.6 14.3 283 27.2
2003-03-24 08:28:57 51°20.435 2°44.071 287 14.3 283 27.5
2003-03-24 08:29:03 51°20.441 2°44.035 287.2 14.2 284 27.5
2003-03-24 08:29:08 51°20.445 2°44.004 287.3 14.2 284 27.3
2003-03-24 08:29:12 51°20.449 2°43.98 287.2 14.2 284 27.4
2003-03-24 08:29:17 51°20.454 2°43.949 287.1 14.2 284 27.4
2003-03-24 08:29:22 51°20.459 2°43.918 287.2 14.2 284 27.4
2003-03-24 08:29:27 51°20.464 2°43.888 287.2 14.2 284 27.5
2003-03-24 08:29:32 51°20.469 2°43.858 287.2 14.2 284 27.2
2003-03-24 08:29:37 51°20.474 2°43.827 287.2 14.1 284 27
2003-03-24 08:29:41 51°20.477 2°43.804 287 14 284 27.2
2003-03-24 08:29:48 51°20.484 2°43.761 286.6 14.1 284 27.2
2003-03-24 08:29:52 51°20.487 2°43.737 286.4 14.1 283 27.1
2003-03-24 08:29:57 51°20.492 2°43.706 286.6 14.1 283 27.1
2003-03-24 08:30:01 51°20.496 2°43.682 286.8 14.1 284 27.1
2003-03-24 08:30:07 51°20.501 2°43.646 286.9 14.2 283 27
2003-03-24 08:30:12 51°20.505 2°43.615 286.6 14.2 283 26.9
2003-03-24 08:30:17 51°20.509 2°43.584 286.4 14.2 283 26.7
2003-03-24 08:30:23 51°20.515 2°43.548 286.8 14.2 283 26.5
2003-03-24 08:30:27 51°20.518 2°43.523 287.3 14.3 283 26.4
2003-03-24 08:30:32 51°20.523 2°43.493 287.4 14.3 284 26.5
2003-03-24 08:30:37 51°20.528 2°43.461 287.2 14.3 284 26.4
2003-03-24 08:30:42 51°20.532 2°43.431 286.9 14.3 283 26.4
2003-03-24 08:30:47 51°20.537 2°43.4 287 14.3 283 26.1
2003-03-24 08:30:53 51°20.542 2°43.363 287.3 14.3 284 25.9
2003-03-24 08:30:57 51°20.546 2°43.338 287.4 14.3 284 25.6
2003-03-24 08:31:02 51°20.551 2°43.308 287.4 14.4 284 25.3
2003-03-24 08:31:07 51°20.556 2°43.277 287 14.4 284 25.2
2003-03-24 08:31:13 51°20.561 2°43.24 286.8 14.3 283 24.6
2003-03-24 08:31:17 51°20.564 2°43.216 286.8 14.3 283 25
2003-03-24 08:31:22 51°20.569 2°43.185 287.2 14.2 283 24.7
2003-03-24 08:31:28 51°20.575 2°43.148 287.2 14.3 284 24.1
2003-03-24 08:31:33 51°20.579 2°43.117 287 14.3 283 24.4
2003-03-24 08:31:37 51°20.583 2°43.092 286.8 14.4 283 24.5
2003-03-24 08:31:42 51°20.587 2°43.062 287.1 14.4 283 24.3
2003-03-24 08:31:47 51°20.592 2°43.031 287.2 14.3 283 24.2
2003-03-24 08:31:52 51°20.596 2°43 287.2 14.3 284 23.8
2003-03-24 08:31:57 51°20.601 2°42.969 286.8 14.3 283 21
2003-03-24 08:32:02 51°20.606 2°42.939 286.6 14.3 283 21.7
2003-03-24 08:32:07 51°20.61 2°42.908 287 14.3 283 22.1
2003-03-24 08:32:12 51°20.615 2°42.877 287.4 14.3 284 22.6
2003-03-24 08:32:18 51°20.62 2°42.84 287.4 14.3 284 22
2003-03-24 08:32:23 51°20.625 2°42.809 287.5 14.3 284 18.8
2003-03-24 08:32:27 51°20.629 2°42.785 287.6 14.3 284 20.8
2003-03-24 08:32:32 51°20.634 2°42.754 287.3 14.4 284 21.7
2003-03-24 08:32:37 51°20.638 2°42.723 287.2 14.4 284 21.7
2003-03-24 08:32:41 51°20.642 2°42.698 286.9 14.5 283 21
2003-03-24 08:32:47 51°20.647 2°42.661 286.8 14.5 283 21.6
2003-03-24 08:32:52 51°20.652 2°42.63 287 14.5 283 20.5
2003-03-24 08:32:57 51°20.657 2°42.599 287.3 14.4 284 18.3
2003-03-24 08:33:01 51°20.66 2°42.574 287.3 14.5 284 20.4
2003-03-24 08:33:08 51°20.667 2°42.531 287.4 14.4 284 21.1
2003-03-24 08:33:12 51°20.671 2°42.506 287.4 14.5 284 21.2
2003-03-24 08:33:17 51°20.676 2°42.475 287.4 14.5 284 21.3
2003-03-24 08:33:21 51°20.679 2°42.45 287.5 14.6 284 20.3
2003-03-24 08:33:27 51°20.685 2°42.412 287.3 14.6 284 17.6
2003-03-24 08:33:32 51°20.69 2°42.381 286.9 14.5 283 18.1
2003-03-24 08:33:37 51°20.694 2°42.35 286.9 14.5 283 18.3
2003-03-24 08:33:43 51°20.7 2°42.313 287.3 14.5 283 18.8
2003-03-24 08:33:47 51°20.704 2°42.288 287.4 14.6 284 18.6
2003-03-24 08:33:52 51°20.709 2°42.257 287.5 14.6 284 18.4
2003-03-24 08:33:57 51°20.713 2°42.225 287.6 14.6 284 17.1
2003-03-24 08:34:01 51°20.717 2°42.201 287.1 14.5 284 17.7
2003-03-24 08:34:08 51°20.724 2°42.157 286.8 14.5 283 18.8
2003-03-24 08:34:12 51°20.728 2°42.132 287.1 14.5 283 18.8
2003-03-24 08:34:17 51°20.733 2°42.101 287 14.5 283 12.6
2003-03-24 08:34:22 51°20.738 2°42.069 287 14.6 284 15.3
2003-03-24 08:34:28 51°20.744 2°42.032 287.3 14.6 284 17.5
2003-03-24 08:34:33 51°20.749 2°42.001 288.7 14.5 285 19
2003-03-24 08:34:37 51°20.753 2°41.976 289.3 14.6 285 20.7
2003-03-24 08:34:42 51°20.758 2°41.944 290.1 14.7 286 21.4
2003-03-24 08:34:48 51°20.766 2°41.908 291.1 14.7 287 20.5
2003-03-24 08:34:53 51°20.772 2°41.877 291.5 14.6 288 17.7
2003-03-24 08:34:57 51°20.778 2°41.853 292.7 14.5 288 20.6
2003-03-24 08:35:03 51°20.786 2°41.817 293.5 14.5 289 22
2003-03-24 08:35:07 51°20.792 2°41.793 294.6 14.5 291 22.6
2003-03-24 08:35:12 51°20.799 2°41.763 296.5 14.6 292 23
2003-03-24 08:35:17 51°20.808 2°41.734 297.7 14.5 294 23.3
2003-03-24 08:35:22 51°20.817 2°41.705 300 14.5 295 23.2
2003-03-24 08:35:28 51°20.829 2°41.672 303.2 14.5 298 23.2
2003-03-24 08:35:33 51°20.84 2°41.646 307.9 14.5 302 22.9
2003-03-24 08:35:37 51°20.85 2°41.626 311.8 14.4 305 22.8
2003-03-24 08:35:42 51°20.864 2°41.602 316.2 14.4 310 23
2003-03-24 08:35:47 51°20.878 2°41.581 321.3 14.4 314 23.1
2003-03-24 08:35:53 51°20.897 2°41.559 326.7 14.3 319 23.7
2003-03-24 08:35:57 51°20.911 2°41.545 331.2 14.2 324 23.7
2003-03-24 08:36:02 51°20.928 2°41.531 337.8 14.2 330 24.4
2003-03-24 08:36:08 51°20.951 2°41.518 343.3 14.1 335 24.9
2003-03-24 08:36:12 51°20.966 2°41.511 348.7 14.2 341 24.8
2003-03-24 08:36:17 51°20.985 2°41.504 354.2 14.2 346 24.3
2003-03-24 08:36:23 51°21.008 2°41.499 358 14.2 350 24.8
2003-03-24 08:36:28 51°21.027 2°41.496 0.7 14.2 352 24.5
2003-03-24 08:36:32 51°21.043 2°41.493 2.2 14.2 354 23.9
2003-03-24 08:36:37 51°21.062 2°41.492 3.6 14.3 355 24
2003-03-24 08:36:43 51°21.086 2°41.489 3.9 14.3 356 23.5
2003-03-24 08:36:48 51°21.106 2°41.487 3.9 14.4 356 23.9
2003-03-24 08:36:52 51°21.121 2°41.485 4.1 14.4 356 25.4
2003-03-24 08:36:57 51°21.141 2°41.483 3.8 14.4 356 25.1
2003-03-24 08:37:02 51°21.161 2°41.481 3.6 14.4 356 25.2
2003-03-24 08:37:07 51°21.181 2°41.479 3.6 14.5 356 24.5
2003-03-24 08:37:11 51°21.197 2°41.477 3.9 14.5 356 23.5
2003-03-24 08:37:17 51°21.221 2°41.475 3.9 14.5 356 22.9
2003-03-24 08:37:22 51°21.241 2°41.472 3.6 14.5 356 25.1
2003-03-24 08:37:27 51°21.261 2°41.47 3.4 14.5 356 24.4
2003-03-24 08:37:32 51°21.28 2°41.469 3.8 14.4 356 22.8
2003-03-24 08:37:37 51°21.3 2°41.466 3.8 14.5 356 25
2003-03-24 08:37:42 51°21.32 2°41.464 3.7 14.5 356 25.5
2003-03-24 08:37:48 51°21.344 2°41.462 4 14.4 356 24.8
2003-03-24 08:37:53 51°21.363 2°41.46 4 14.4 357 23.5
2003-03-24 08:37:57 51°21.379 2°41.458 3.7 14.5 356 25.9
2003-03-24 08:38:02 51°21.399 2°41.457 3.6 14.4 356 26.5
2003-03-24 08:38:08 51°21.423 2°41.455 4 14.4 357 26.4
2003-03-24 08:38:12 51°21.44 2°41.453 4.3 14.5 357 26.2
2003-03-24 08:38:17 51°21.46 2°41.45 3.9 14.5 356 25.9
2003-03-24 08:38:22 51°21.48 2°41.449 3.9 14.5 357 25.9
2003-03-24 08:38:27 51°21.5 2°41.447 3.9 14.5 357 25.7
2003-03-24 08:38:32 51°21.52 2°41.445 3.9 14.5 357 25.3
2003-03-24 08:38:37 51°21.54 2°41.443 3.9 14.5 357 24.8
2003-03-24 08:38:41 51°21.556 2°41.441 3.8 14.5 356 22.6
2003-03-24 08:38:48 51°21.584 2°41.439 3.8 14.5 356 25.1
2003-03-24 08:38:52 51°21.6 2°41.437 3.9 14.5 357 25.5
2003-03-24 08:38:57 51°21.62 2°41.436 3.9 14.5 357 26.1
2003-03-24 08:39:01 51°21.636 2°41.434 4 14.6 357 25.7
2003-03-24 08:39:08 51°21.664 2°41.432 4 14.6 357 24.1
2003-03-24 08:39:12 51°21.68 2°41.432 4.2 14.6 358 26.4
2003-03-24 08:39:17 51°21.7 2°41.43 3.9 14.5 357 27.2
2003-03-24 08:39:21 51°21.716 2°41.429 4 14.5 357 27.3
2003-03-24 08:39:27 51°21.74 2°41.427 3.9 14.5 357 27.4
2003-03-24 08:39:33 51°21.764 2°41.426 3.7 14.5 357 27.1
2003-03-24 08:39:37 51°21.78 2°41.425 3.9 14.5 357 27
2003-03-24 08:39:42 51°21.8 2°41.424 4.3 14.5 357 26.8
2003-03-24 08:39:47 51°21.82 2°41.422 4.3 14.6 358 26.3
2003-03-24 08:39:52 51°21.84 2°41.421 3.9 14.6 358 25.4
2003-03-24 08:39:58 51°21.864 2°41.418 3.8 14.6 357 26.5
2003-03-24 08:40:02 51°21.88 2°41.417 4.1 14.5 357 27.4
2003-03-24 08:40:08 51°21.904 2°41.415 4.1 14.5 358 27.5
2003-03-24 08:40:12 51°21.92 2°41.414 4.1 14.6 358 27.4
2003-03-24 08:40:17 51°21.94 2°41.413 4.1 14.6 358 27.3
2003-03-24 08:40:23 51°21.965 2°41.412 4.2 14.5 358 27.3
2003-03-24 08:40:27 51°21.981 2°41.41 4.3 14.5 358 27.2
2003-03-24 08:40:32 51°22.001 2°41.409 4.2 14.6 357 27.1
2003-03-24 08:40:37 51°22.021 2°41.408 3.8 14.6 357 27.2
2003-03-24 08:40:41 51°22.037 2°41.407 3.9 14.5 357 26.9
2003-03-24 08:40:48 51°22.065 2°41.406 4.1 14.5 358 26.5
2003-03-24 08:40:52 51°22.082 2°41.405 4.3 14.5 358 25.8
2003-03-24 08:40:57 51°22.102 2°41.404 4.3 14.5 358 23.7
2003-03-24 08:41:01 51°22.118 2°41.403 4.3 14.6 358 24.4
2003-03-24 08:41:08 51°22.145 2°41.401 4.1 14.5 358 26.9
2003-03-24 08:41:12 51°22.161 2°41.401 4.2 14.5 358 27.6
2003-03-24 08:41:17 51°22.181 2°41.399 4.2 14.5 358 27.7
2003-03-24 08:41:22 51°22.201 2°41.398 4 14.6 358 27.9
2003-03-24 08:41:27 51°22.221 2°41.397 3.9 14.6 358 28
2003-03-24 08:41:33 51°22.246 2°41.396 4.2 14.6 358 27.9
2003-03-24 08:41:37 51°22.262 2°41.395 4.3 14.6 358 27.6
2003-03-24 08:41:42 51°22.282 2°41.394 4.1 14.7 358 27.4
2003-03-24 08:41:48 51°22.307 2°41.394 4.4 14.6 359 26.4
2003-03-24 08:41:52 51°22.323 2°41.394 6.7 14.6 1 25.2
2003-03-24 08:41:57 51°22.344 2°41.397 11 14.5 4 26.4
2003-03-24 08:42:01 51°22.36 2°41.402 15.2 14.5 8 27.8
2003-03-24 08:42:07 51°22.383 2°41.411 19.6 14.5 11 28.3
2003-03-24 08:42:12 51°22.402 2°41.421 24 14.4 17 28.2
2003-03-24 08:42:18 51°22.424 2°41.436 27.6 14.4 21 27.5
2003-03-24 08:42:21 51°22.435 2°41.445 31.9 14.4 25 26.4
2003-03-24 08:42:27 51°22.455 2°41.463 34.1 14.4 27 26.2
2003-03-24 08:42:33 51°22.476 2°41.483 36.6 14.4 29 27.8
2003-03-24 08:42:37 51°22.489 2°41.496 38.3 14.4 31 28.6
2003-03-24 08:42:43 51°22.509 2°41.517 39.9 14.3 33 29.2
2003-03-24 08:42:48 51°22.525 2°41.536 41.3 14.3 34 29.3
2003-03-24 08:42:53 51°22.541 2°41.554 41.8 14.4 35 29.4
2003-03-24 08:42:57 51°22.554 2°41.57 42.9 14.4 36 29.3
2003-03-24 08:43:02 51°22.569 2°41.589 43.3 14.4 37 29.1
2003-03-24 08:43:07 51°22.585 2°41.609 43.9 14.4 38 28.6
2003-03-24 08:43:12 51°22.601 2°41.628 45 14.4 38 28.4
2003-03-24 08:43:18 51°22.619 2°41.654 46.8 14.4 40 28.1
2003-03-24 08:43:23 51°22.634 2°41.674 46.8 14.4 40 28.4
2003-03-24 08:43:27 51°22.646 2°41.692 48.2 14.4 42 29
2003-03-24 08:43:33 51°22.664 2°41.716 48.4 14.4 41 29.2
2003-03-24 08:43:37 51°22.675 2°41.734 49.2 14.4 43 29.1
2003-03-24 08:43:42 51°22.69 2°41.755 49.6 14.4 43 27.8
2003-03-24 08:43:48 51°22.707 2°41.782 50.1 14.4 44 27.1
2003-03-24 08:43:52 51°22.719 2°41.799 50.2 14.4 43 26.8
2003-03-24 08:43:57 51°22.733 2°41.822 50.2 14.4 44 27
2003-03-24 08:44:02 51°22.749 2°41.844 50.5 14.3 44 26.9
2003-03-24 08:44:08 51°22.767 2°41.871 50.6 14.4 44 26.8
2003-03-24 08:44:13 51°22.782 2°41.893 50.4 14.4 44 26.8
2003-03-24 08:44:17 51°22.795 2°41.911 50.2 14.4 43 26.9
2003-03-24 08:44:22 51°22.811 2°41.932 50.5 14.3 44 27
2003-03-24 08:44:28 51°22.829 2°41.958 50.4 14.3 44 26.7
2003-03-24 08:44:32 51°22.84 2°41.976 50.5 14.3 44 26.6
2003-03-24 08:44:37 51°22.854 2°41.998 50 14.3 44 25.7
2003-03-24 08:44:43 51°22.871 2°42.025 50.6 14.3 44 26.6
2003-03-24 08:44:48 51°22.886 2°42.047 50.6 14.3 44 26.9
2003-03-24 08:44:52 51°22.897 2°42.065 50.3 14.3 44 25.9
2003-03-24 08:44:57 51°22.911 2°42.087 50.1 14.3 44 26.8
2003-03-24 08:45:02 51°22.926 2°42.108 50 14.2 44 26.9
2003-03-24 08:45:07 51°22.94 2°42.13 50.7 14.2 44 26.7
2003-03-24 08:45:13 51°22.956 2°42.157 50.8 14.2 44 26.6
2003-03-24 08:45:17 51°22.967 2°42.175 50.3 14.2 44 26.5
2003-03-24 08:45:22 51°22.982 2°42.196 50 14.2 43 26.3
2003-03-24 08:45:28 51°22.999 2°42.222 50.2 14.2 44 26
2003-03-24 08:45:32 51°23.011 2°42.239 50.3 14.2 44 26.2
2003-03-24 08:45:37 51°23.025 2°42.261 50.4 14.2 44 26.3
2003-03-24 08:45:43 51°23.042 2°42.287 50.1 14.2 44 26.4
2003-03-24 08:45:48 51°23.056 2°42.309 50.6 14.2 44 26.1
2003-03-24 08:45:52 51°23.067 2°42.327 50.3 14.2 44 26.6
2003-03-24 08:45:57 51°23.081 2°42.349 50.1 14.2 44 26.6
2003-03-24 08:46:02 51°23.096 2°42.37 50.2 14.2 44 26.5
2003-03-24 08:46:08 51°23.112 2°42.396 50.7 14.2 44 25.8
2003-03-24 08:46:13 51°23.127 2°42.416 48.2 14.2 42 26.1
2003-03-24 08:46:17 51°23.14 2°42.433 46.3 14.2 40 26.4
2003-03-24 08:46:22 51°23.155 2°42.453 45.3 14.2 39 26.6
2003-03-24 08:46:28 51°23.174 2°42.475 43.1 14.2 37 26.3
2003-03-24 08:46:32 51°23.187 2°42.49 42.4 14.3 36 26
2003-03-24 08:46:38 51°23.206 2°42.511 41.3 14.3 35 26.2
2003-03-24 08:46:43 51°23.222 2°42.529 39.9 14.3 34 26
2003-03-24 08:46:48 51°23.239 2°42.545 38.3 14.3 32 25.8
2003-03-24 08:46:52 51°23.252 2°42.558 37.4 14.3 31 26.5
2003-03-24 08:46:57 51°23.27 2°42.571 34.3 14.4 28 26.2
2003-03-24 08:47:03 51°23.292 2°42.588 33 14.4 27 25.5
2003-03-24 08:47:07 51°23.306 2°42.598 31.6 14.4 25 25.5
2003-03-24 08:47:12 51°23.325 2°42.611 30.5 14.4 24 26.5
2003-03-24 08:47:17 51°23.344 2°42.621 27.6 14.3 22 26.3
2003-03-24 08:47:23 51°23.367 2°42.633 25.9 14.4 20 26.1
2003-03-24 08:47:27 51°23.382 2°42.64 24.5 14.3 18 25.2
2003-03-24 08:47:32 51°23.401 2°42.649 23.5 14.3 17 25
2003-03-24 08:47:38 51°23.423 2°42.659 21.1 14.3 16 26.1
2003-03-24 08:47:41 51°23.435 2°42.662 18.7 14.3 12 24.9
2003-03-24 08:47:47 51°23.458 2°42.67 17.7 14.3 12 23.1
2003-03-24 08:47:53 51°23.482 2°42.674 15 14.3 8 25.2
2003-03-24 08:47:57 51°23.498 2°42.675 10.9 14.3 6 25.1
2003-03-24 08:48:03 51°23.521 2°42.674 6.9 14.2 1 24.7
2003-03-24 08:48:08 51°23.541 2°42.673 4.7 14.2 359 27.2
2003-03-24 08:48:12 51°23.556 2°42.671 2.2 14.2 356 27.8
2003-03-24 08:48:17 51°23.576 2°42.669 0.4 14.3 355 28.2
2003-03-24 08:48:22 51°23.595 2°42.665 358.6 14.3 354 28.1
2003-03-24 08:48:27 51°23.615 2°42.66 357.5 14.3 352 27.9
2003-03-24 08:48:32 51°23.635 2°42.654 354.6 14.3 350 27.9
2003-03-24 08:48:37 51°23.654 2°42.645 351.5 14.3 347 27.6
2003-03-24 08:48:42 51°23.673 2°42.637 349.9 14.3 345 27.5
2003-03-24 08:48:47 51°23.692 2°42.626 348.2 14.3 343 27.1
2003-03-24 08:48:52 51°23.711 2°42.616 346.4 14.3 341 27
2003-03-24 08:48:58 51°23.732 2°42.601 343.2 14.3 339 26.9
2003-03-24 08:49:02 51°23.747 2°42.591 341.8 14.3 337 27.2
2003-03-24 08:49:08 51°23.768 2°42.574 339.7 14.3 335 26.9
2003-03-24 08:49:12 51°23.783 2°42.564 339.1 14.3 334 27
2003-03-24 08:49:18 51°23.803 2°42.545 337.5 14.3 333 26.6
2003-03-24 08:49:21 51°23.814 2°42.536 337 14.3 333 26.8
2003-03-24 08:49:28 51°23.838 2°42.514 335.9 14.3 332 25.5
2003-03-24 08:49:32 51°23.852 2°42.502 335.8 14.4 331 25.6
2003-03-24 08:49:37 51°23.87 2°42.486 335.5 14.4 331 24.3
2003-03-24 08:49:43 51°23.891 2°42.468 335.2 14.5 330 25.3
2003-03-24 08:49:47 51°23.905 2°42.455 335.3 14.4 330 24.5
2003-03-24 08:49:52 51°23.922 2°42.439 335.5 14.4 331 24.6
2003-03-24 08:49:57 51°23.939 2°42.424 335.6 14.4 331 24.4
2003-03-24 08:50:01 51°23.953 2°42.411 335.4 14.5 330 24.5
2003-03-24 08:50:07 51°23.974 2°42.392 336 14.5 331 24.2
2003-03-24 08:50:12 51°23.991 2°42.376 336 14.4 330 24.6
2003-03-24 08:50:17 51°24.009 2°42.361 336.4 14.4 331 24.4
2003-03-24 08:50:22 51°24.026 2°42.345 336.1 14.4 331 24.4
2003-03-24 08:50:27 51°24.044 2°42.329 336.4 14.4 331 24.4
2003-03-24 08:50:32 51°24.061 2°42.314 336.7 14.4 331 24.6
2003-03-24 08:50:37 51°24.079 2°42.299 336.8 14.4 331 25
2003-03-24 08:50:41 51°24.093 2°42.287 337.1 14.4 331 24.7
2003-03-24 08:50:48 51°24.117 2°42.265 336.8 14.4 331 24.9
2003-03-24 08:50:52 51°24.131 2°42.253 337 14.3 331 25.2
2003-03-24 08:50:57 51°24.149 2°42.238 337.5 14.3 332 25.7
2003-03-24 08:51:01 51°24.162 2°42.226 337.4 14.3 332 25.8
2003-03-24 08:51:07 51°24.183 2°42.208 337.6 14.3 332 26.3
2003-03-24 08:51:12 51°24.201 2°42.193 337.4 14.3 332 26.7
2003-03-24 08:51:17 51°24.219 2°42.178 337.6 14.3 332 26.4
2003-03-24 08:51:23 51°24.241 2°42.16 337.6 14.4 332 26.8
2003-03-24 08:51:28 51°24.258 2°42.146 337.8 14.4 332 26.8
2003-03-24 08:51:32 51°24.272 2°42.135 338.4 14.3 333 26.7
2003-03-24 08:51:37 51°24.29 2°42.12 338.2 14.3 333 26.8
2003-03-24 08:51:43 51°24.311 2°42.102 338 14.3 333 26.9
2003-03-24 08:51:47 51°24.325 2°42.09 337.7 14.3 332 27
2003-03-24 08:51:52 51°24.342 2°42.075 337.8 14.3 332 26.8
2003-03-24 08:51:57 51°24.36 2°42.06 338.1 14.3 332 26.9
2003-03-24 08:52:02 51°24.377 2°42.045 338.2 14.3 332 26.7
2003-03-24 08:52:08 51°24.398 2°42.028 338.2 14.3 332 26.4
2003-03-24 08:52:12 51°24.412 2°42.016 338.2 14.3 332 26.6
2003-03-24 08:52:17 51°24.429 2°42.002 338.3 14.3 332 26.4
2003-03-24 08:52:23 51°24.451 2°41.985 338.4 14.3 333 26.5
2003-03-24 08:52:27 51°24.465 2°41.973 338.9 14.3 333 26.5
2003-03-24 08:52:33 51°24.487 2°41.957 339.1 14.3 334 26.8
2003-03-24 08:52:37 51°24.501 2°41.946 338.7 14.2 334 26.3
2003-03-24 08:52:43 51°24.522 2°41.93 339.2 14.2 334 26.8
2003-03-24 08:52:48 51°24.54 2°41.916 338.9 14.2 334 25.9
2003-03-24 08:52:52 51°24.553 2°41.905 338.9 14.1 334 25.9
2003-03-24 08:52:57 51°24.571 2°41.891 338.9 14.1 334 25.2
2003-03-24 08:53:03 51°24.592 2°41.875 338.8 14.1 334 24.1
2003-03-24 08:53:08 51°24.609 2°41.861 339 14.2 334 23
2003-03-24 08:53:12 51°24.624 2°41.85 338.9 14.2 334 22.4
2003-03-24 08:53:17 51°24.641 2°41.837 339.3 14.2 334 20.7
2003-03-24 08:53:22 51°24.659 2°41.823 339 14.2 335 24.4
2003-03-24 08:53:27 51°24.677 2°41.81 339.5 14.2 335 25.7
2003-03-24 08:53:33 51°24.698 2°41.794 339.6 14.3 336 25.2
2003-03-24 08:53:37 51°24.713 2°41.784 339.2 14.3 335 23.9
2003-03-24 08:53:43 51°24.734 2°41.768 339.2 14.2 335 21.3
2003-03-24 08:53:48 51°24.752 2°41.756 339 14.2 335 23
2003-03-24 08:53:52 51°24.767 2°41.745 339 14.2 336 24.9
2003-03-24 08:53:57 51°24.785 2°41.733 339 14.2 336 26.2
2003-03-24 08:54:03 51°24.807 2°41.717 339.6 14.3 336 26.4
2003-03-24 08:54:07 51°24.822 2°41.706 339.2 14.3 336 26.4
2003-03-24 08:54:12 51°24.84 2°41.694 339.3 14.3 336 24.8
2003-03-24 08:54:17 51°24.858 2°41.68 339.1 14.4 336 24.2
2003-03-24 08:54:22 51°24.875 2°41.667 338.9 14.3 335 25
2003-03-24 08:54:28 51°24.897 2°41.651 338.9 14.3 335 24.3
2003-03-24 08:54:33 51°24.915 2°41.638 339 14.3 335 21.8
2003-03-24 08:54:37 51°24.929 2°41.627 339.5 14.3 335 23.9
2003-03-24 08:54:42 51°24.947 2°41.614 339.5 14.3 335 24.7
2003-03-24 08:54:48 51°24.969 2°41.598 339.5 14.3 335 25.3
2003-03-24 08:54:53 51°24.987 2°41.584 339.4 14.3 335 25.7
2003-03-24 08:54:57 51°25.001 2°41.573 339.6 14.3 335 26.1
2003-03-24 08:55:02 51°25.019 2°41.56 339.2 14.3 334 25.6
2003-03-24 08:55:07 51°25.037 2°41.547 339.7 14.3 335 24.6
2003-03-24 08:55:13 51°25.058 2°41.53 339.6 14.3 335 25.4
2003-03-24 08:55:17 51°25.073 2°41.519 339.7 14.3 335 26
2003-03-24 08:55:22 51°25.091 2°41.506 339.8 14.3 335 23.8
2003-03-24 08:55:28 51°25.112 2°41.49 340.2 14.3 335 24.9
2003-03-24 08:55:33 51°25.13 2°41.477 339.9 14.3 335 25.6
2003-03-24 08:55:37 51°25.144 2°41.466 339.9 14.3 335 25.2
2003-03-24 08:55:41 51°25.159 2°41.455 339.6 14.3 335 26.1
2003-03-24 08:55:47 51°25.18 2°41.439 339.3 14.3 335 25.9
2003-03-24 08:55:52 51°25.198 2°41.425 339.7 14.3 335 26.1
2003-03-24 08:55:57 51°25.216 2°41.411 339.6 14.3 335 26.4
2003-03-24 08:56:02 51°25.234 2°41.398 339.6 14.4 335 26.3
2003-03-24 08:56:08 51°25.256 2°41.382 339.8 14.4 335 26.9
2003-03-24 08:56:12 51°25.27 2°41.371 340.2 14.4 335 26
2003-03-24 08:56:17 51°25.289 2°41.358 340.2 14.4 335 25.5
2003-03-24 08:56:23 51°25.311 2°41.341 339.6 14.3 335 24.2
2003-03-24 08:56:28 51°25.329 2°41.328 339.6 14.3 335 23.8
2003-03-24 08:56:32 51°25.343 2°41.317 339.6 14.4 335 23.2
2003-03-24 08:56:37 51°25.361 2°41.304 339.6 14.3 335 23.6
2003-03-24 08:56:42 51°25.379 2°41.29 339.7 14.3 335 23.1
2003-03-24 08:56:47 51°25.396 2°41.277 340 14.3 335 22.9
2003-03-24 08:56:52 51°25.415 2°41.263 339.7 14.3 335 23.7
2003-03-24 08:56:58 51°25.437 2°41.247 340 14.4 335 22.9
2003-03-24 08:57:03 51°25.455 2°41.234 340 14.7 335 24.2